Portada
METAR-TAF:

METAR-TAF

Aeropuertos :

Limoges, Francia

Aeropuerto de Limoges

latitud: 45-52N, longitud: 001-11E, altitud: 396 m

Observación

El informe se hizo hace 41 minutos, a las 04:00 UTC
Viento 3 kt del norte-noreste
Temperatura 11°C
Humedad 82%
Presión 1015 hPa
Visibilidad 10 km o más
sin nubes por debajo de 1500 m y sin presencia de cumulonimbus.

METAR: LFBL 210400Z AUTO 03003KT CAVOK 11/08 Q1015 NOSIG

Hora: 06:41 (04:41 UTC)

Pronóstico

El informe se hizo hace 5 horas y 41 minutos, a las 23:00 UTC
Pronóstico válido del 21 a las 00 UTC al 21 a las 24 UTC
Viento 5 kt del oeste
Visibilidad 10 km o más
sin nubes por debajo de 1500 m y sin presencia de cumulonimbus.
Evolucionando progresivamente
del 21 a las 03 UTC al 21 a las 05 UTC
Cielo nuboso a una altura de 3500 ft

TAF: LFBL 202300Z 2100/2124 27005KT CAVOK BECMG 2103/2105 BKN035

Observaciones y pronósticos meteorológicos de más de 4000 aeropuertos (mensajes METAR y TAF).

Los puntos amarillos y rojos representan las estaciones disponibles.

Ponga el ratón en el punto deseado para ver el nombre de la estación.

Haga clic para ver las observaciones y los pronósticos meteorológicos.

Para cambiar el mapa : haga clic en los botones verdes con una cruz de color negro para hacer un zoom, en el botón verde con un guión para alejar o en las flechas verdes para mapas adyacentes.


METAR-TAF: